Maria Desgagnes — VCWL — position and weather

sailwx.info

Track history (hours):
 
Tides and Currents Weather Stations Pressure Air Temp Water Temp Dewpoint Dewpoint Depression Visibility Wind Speed Wind Dir Waves Ship Positions

Maria Desgagnes

Last reported at 2015-Jun-24 23:29 UTC. Time now 2015-Jul-03 06:16 UTC.
Position N 46°34' W 072°07'.
Warning: this ship's position is 8 days out of date.

Length 120 m; draft 7.1 m.

Type: Ship. MMSI: 316285000.

Date/timePositionNaut miles runAvg speedWind from/ knotsBaromVisibWave heightAir tempDewpointWater temp
2015-Jun-24 23:29N 46°34' W 072°07'1313.9
2015-Jun-24 22:34N 46°26' W 072°21'1313.3
2015-Jun-24 21:33N 46°17' W 072°36'1211.9
2015-Jun-24 20:33N 46°12' W 072°51'56 9.1
2015-Jun-24 14:26N 45°24' W 073°33'1 1.7
2015-Jun-24 13:33N 45°24' W 073°35'4 4.1
2015-Jun-24 12:33N 45°25' W 073°41'8 7.9
2015-Jun-24 11:34N 45°21' W 073°51'4 4.1
2015-Jun-24 10:32N 45°19' W 073°55'1 1.1
2015-Jun-24 09:33N 45°18' W 073°56'  
2015-Jun-21 13:34N 44°11' W 076°19'82 7.1
2015-Jun-21 02:00N 44°54' W 074°42'41 0.8 100 / 4 20.512.916.8
2015-Jun-19 00:33N 45°18' W 073°56'1 0.9
2015-Jun-18 23:32N 45°19' W 073°55'2 1.8
2015-Jun-18 22:32N 45°20' W 073°53'9 9.1
2015-Jun-18 21:33N 45°25' W 073°42'9 0.2
2015-Jun-16 19:30N 45°28' W 073°30'4 4.1
2015-Jun-16 18:28N 45°24' W 073°34'2 0.3
2015-Jun-16 10:30N 45°24' W 073°37'5 5.7
2015-Jun-16 09:33N 45°24' W 073°45'9 8.4
2015-Jun-16 08:28N 45°19' W 073°55'1 1.1
2015-Jun-16 07:33N 45°18' W 073°56'119 7.7
2015-Jun-15 16:04N 44°12' W 076°15'0 0.0
2015-Jun-15 15:34N 44°12' W 076°15'1 0.4
2015-Jun-15 11:28N 44°12' W 076°17'6 6.3
2015-Jun-15 10:33N 44°07' W 076°22'  
Track history (hours):
 
Tides and Currents Weather Stations Pressure Air Temp Water Temp Dewpoint Dewpoint Depression Visibility Wind Speed Wind Dir Waves Ship Positions

Maria Desgagnes

Last reported at 2015-Jun-24 23:29 UTC. Time now 2015-Jul-03 06:16 UTC.
Position N 46°34' W 072°07'.
Warning: this ship's position is 8 days out of date.

Length 120 m; draft 7.1 m.

Type: Ship. MMSI: 316285000.

Date/timePositionNaut miles runAvg speedWind from/ knotsBaromVisibWave heightAir tempDewpointWater temp
2015-Jun-24 23:29N 46°34' W 072°07'1313.9
2015-Jun-24 22:34N 46°26' W 072°21'1313.3
2015-Jun-24 21:33N 46°17' W 072°36'1211.9
2015-Jun-24 20:33N 46°12' W 072°51'56 9.1
2015-Jun-24 14:26N 45°24' W 073°33'1 1.7
2015-Jun-24 13:33N 45°24' W 073°35'4 4.1
2015-Jun-24 12:33N 45°25' W 073°41'8 7.9
2015-Jun-24 11:34N 45°21' W 073°51'4 4.1
2015-Jun-24 10:32N 45°19' W 073°55'1 1.1
2015-Jun-24 09:33N 45°18' W 073°56'  
2015-Jun-21 13:34N 44°11' W 076°19'82 7.1
2015-Jun-21 02:00N 44°54' W 074°42'41 0.8 100 / 4 20.512.916.8
2015-Jun-19 00:33N 45°18' W 073°56'1 0.9
2015-Jun-18 23:32N 45°19' W 073°55'2 1.8
2015-Jun-18 22:32N 45°20' W 073°53'9 9.1
2015-Jun-18 21:33N 45°25' W 073°42'9 0.2
2015-Jun-16 19:30N 45°28' W 073°30'4 4.1
2015-Jun-16 18:28N 45°24' W 073°34'2 0.3
2015-Jun-16 10:30N 45°24' W 073°37'5 5.7
2015-Jun-16 09:33N 45°24' W 073°45'9 8.4
2015-Jun-16 08:28N 45°19' W 073°55'1 1.1
2015-Jun-16 07:33N 45°18' W 073°56'119 7.7
2015-Jun-15 16:04N 44°12' W 076°15'0 0.0
2015-Jun-15 15:34N 44°12' W 076°15'1 0.4
2015-Jun-15 11:28N 44°12' W 076°17'6 6.3
2015-Jun-15 10:33N 44°07' W 076°22'  

Dump ship's entire track history